sensor_id;sensor_type;location;lat;lon;timestamp;P1;durP1;ratioP1;P2;durP2;ratioP2
13816;SDS011;6979;52.116;5.286;2024-01-16T00:00:28;3.53;;;1.77;;
13816;SDS011;6979;52.116;5.286;2024-01-16T00:02:56;2.40;;;1.37;;
13816;SDS011;6979;52.116;5.286;2024-01-16T00:05:25;2.80;;;1.60;;
13816;SDS011;6979;52.116;5.286;2024-01-16T00:07:54;3.90;;;1.67;;
13816;SDS011;6979;52.116;5.286;2024-01-16T00:10:27;2.13;;;1.60;;
13816;SDS011;6979;52.116;5.286;2024-01-16T00:12:54;1.90;;;1.47;;
13816;SDS011;6979;52.116;5.286;2024-01-16T00:15:21;4.03;;;1.37;;
13816;SDS011;6979;52.116;5.286;2024-01-16T00:17:48;4.10;;;1.23;;
13816;SDS011;6979;52.116;5.286;2024-01-16T00:20:14;3.57;;;1.47;;
13816;SDS011;6979;52.116;5.286;2024-01-16T00:22:41;3.50;;;1.83;;
13816;SDS011;6979;52.116;5.286;2024-01-16T00:25:08;3.53;;;1.30;;
13816;SDS011;6979;52.116;5.286;2024-01-16T00:27:38;5.73;;;2.07;;
13816;SDS011;6979;52.116;5.286;2024-01-16T00:30:05;4.13;;;1.50;;
13816;SDS011;6979;52.116;5.286;2024-01-16T00:32:32;4.30;;;1.50;;
13816;SDS011;6979;52.116;5.286;2024-01-16T00:34:59;3.23;;;1.43;;
13816;SDS011;6979;52.116;5.286;2024-01-16T00:37:26;2.27;;;1.77;;
13816;SDS011;6979;52.116;5.286;2024-01-16T00:39:53;1.87;;;1.17;;
13816;SDS011;6979;52.116;5.286;2024-01-16T00:42:20;3.07;;;1.43;;
13816;SDS011;6979;52.116;5.286;2024-01-16T00:44:48;2.70;;;1.80;;
13816;SDS011;6979;52.116;5.286;2024-01-16T00:47:15;2.33;;;1.40;;
13816;SDS011;6979;52.116;5.286;2024-01-16T00:49:44;2.63;;;1.40;;
13816;SDS011;6979;52.116;5.286;2024-01-16T00:52:11;3.93;;;1.77;;
13816;SDS011;6979;52.116;5.286;2024-01-16T00:54:41;7.20;;;1.60;;
13816;SDS011;6979;52.116;5.286;2024-01-16T00:57:08;3.47;;;1.73;;
13816;SDS011;6979;52.116;5.286;2024-01-16T00:59:36;2.10;;;1.30;;
13816;SDS011;6979;52.116;5.286;2024-01-16T01:02:04;3.57;;;1.50;;
13816;SDS011;6979;52.116;5.286;2024-01-16T01:04:32;2.70;;;1.60;;
13816;SDS011;6979;52.116;5.286;2024-01-16T01:06:59;5.60;;;1.80;;
13816;SDS011;6979;52.116;5.286;2024-01-16T01:09:27;3.00;;;1.87;;
13816;SDS011;6979;52.116;5.286;2024-01-16T01:11:54;4.63;;;1.37;;
13816;SDS011;6979;52.116;5.286;2024-01-16T01:14:21;2.70;;;1.30;;
13816;SDS011;6979;52.116;5.286;2024-01-16T01:16:48;3.73;;;1.50;;
13816;SDS011;6979;52.116;5.286;2024-01-16T01:19:16;1.90;;;1.10;;
13816;SDS011;6979;52.116;5.286;2024-01-16T01:21:43;4.23;;;1.47;;
13816;SDS011;6979;52.116;5.286;2024-01-16T01:24:10;2.90;;;1.67;;
13816;SDS011;6979;52.116;5.286;2024-01-16T01:26:37;1.90;;;1.40;;
13816;SDS011;6979;52.116;5.286;2024-01-16T01:29:04;1.97;;;0.97;;
13816;SDS011;6979;52.116;5.286;2024-01-16T01:31:30;2.13;;;1.20;;
13816;SDS011;6979;52.116;5.286;2024-01-16T01:33:57;2.80;;;1.20;;
13816;SDS011;6979;52.116;5.286;2024-01-16T01:36:26;2.07;;;1.00;;
13816;SDS011;6979;52.116;5.286;2024-01-16T01:38:53;3.10;;;1.50;;
13816;SDS011;6979;52.116;5.286;2024-01-16T01:41:19;2.97;;;1.63;;
13816;SDS011;6979;52.116;5.286;2024-01-16T01:43:46;3.33;;;1.20;;
13816;SDS011;6979;52.116;5.286;2024-01-16T01:46:14;2.77;;;1.20;;
13816;SDS011;6979;52.116;5.286;2024-01-16T01:48:44;4.23;;;1.20;;
13816;SDS011;6979;52.116;5.286;2024-01-16T01:51:13;2.73;;;1.10;;
13816;SDS011;6979;52.116;5.286;2024-01-16T01:53:45;1.37;;;1.03;;
13816;SDS011;6979;52.116;5.286;2024-01-16T01:56:15;3.10;;;1.00;;
13816;SDS011;6979;52.116;5.286;2024-01-16T01:58:45;4.07;;;1.10;;
13816;SDS011;6979;52.116;5.286;2024-01-16T02:01:13;2.67;;;1.00;;
13816;SDS011;6979;52.116;5.286;2024-01-16T02:03:41;3.60;;;1.13;;
13816;SDS011;6979;52.116;5.286;2024-01-16T02:06:10;2.23;;;1.30;;
13816;SDS011;6979;52.116;5.286;2024-01-16T02:08:38;2.30;;;1.10;;
13816;SDS011;6979;52.116;5.286;2024-01-16T02:11:07;2.63;;;1.23;;
13816;SDS011;6979;52.116;5.286;2024-01-16T02:13:35;2.70;;;0.70;;
13816;SDS011;6979;52.116;5.286;2024-01-16T02:16:02;1.60;;;0.90;;
13816;SDS011;6979;52.116;5.286;2024-01-16T02:18:31;1.27;;;0.60;;
13816;SDS011;6979;52.116;5.286;2024-01-16T02:20:59;1.50;;;0.73;;
13816;SDS011;6979;52.116;5.286;2024-01-16T02:23:27;1.83;;;0.90;;
13816;SDS011;6979;52.116;5.286;2024-01-16T02:25:58;1.07;;;0.70;;
13816;SDS011;6979;52.116;5.286;2024-01-16T02:28:25;1.80;;;0.63;;
13816;SDS011;6979;52.116;5.286;2024-01-16T02:30:52;1.33;;;0.70;;
13816;SDS011;6979;52.116;5.286;2024-01-16T02:33:19;0.97;;;0.60;;
13816;SDS011;6979;52.116;5.286;2024-01-16T02:35:46;1.93;;;0.70;;
13816;SDS011;6979;52.116;5.286;2024-01-16T02:38:12;0.40;;;0.40;;
13816;SDS011;6979;52.116;5.286;2024-01-16T02:40:41;0.47;;;0.40;;
13816;SDS011;6979;52.116;5.286;2024-01-16T02:43:07;1.53;;;0.70;;
13816;SDS011;6979;52.116;5.286;2024-01-16T02:45:34;0.43;;;0.43;;
13816;SDS011;6979;52.116;5.286;2024-01-16T02:48:01;2.00;;;0.50;;
13816;SDS011;6979;52.116;5.286;2024-01-16T02:50:30;1.63;;;0.67;;
13816;SDS011;6979;52.116;5.286;2024-01-16T02:52:57;0.40;;;0.37;;
13816;SDS011;6979;52.116;5.286;2024-01-16T02:55:24;2.97;;;0.70;;
13816;SDS011;6979;52.116;5.286;2024-01-16T02:57:52;0.93;;;0.63;;
13816;SDS011;6979;52.116;5.286;2024-01-16T03:00:19;0.60;;;0.47;;
13816;SDS011;6979;52.116;5.286;2024-01-16T03:02:47;1.10;;;0.50;;
13816;SDS011;6979;52.116;5.286;2024-01-16T03:05:14;1.00;;;0.40;;
13816;SDS011;6979;52.116;5.286;2024-01-16T03:07:41;1.13;;;0.47;;
13816;SDS011;6979;52.116;5.286;2024-01-16T03:10:08;1.53;;;0.70;;
13816;SDS011;6979;52.116;5.286;2024-01-16T03:12:36;0.93;;;0.43;;
13816;SDS011;6979;52.116;5.286;2024-01-16T03:15:04;2.00;;;0.43;;
13816;SDS011;6979;52.116;5.286;2024-01-16T03:17:34;0.77;;;0.77;;
13816;SDS011;6979;52.116;5.286;2024-01-16T03:20:00;1.17;;;0.60;;
13816;SDS011;6979;52.116;5.286;2024-01-16T03:22:28;0.50;;;0.50;;
13816;SDS011;6979;52.116;5.286;2024-01-16T03:24:55;1.80;;;0.60;;
13816;SDS011;6979;52.116;5.286;2024-01-16T03:27:22;1.10;;;0.37;;
13816;SDS011;6979;52.116;5.286;2024-01-16T03:29:49;0.87;;;0.80;;
13816;SDS011;6979;52.116;5.286;2024-01-16T03:32:17;2.63;;;0.80;;
13816;SDS011;6979;52.116;5.286;2024-01-16T03:34:44;1.63;;;0.40;;
13816;SDS011;6979;52.116;5.286;2024-01-16T03:37:11;1.20;;;0.77;;
13816;SDS011;6979;52.116;5.286;2024-01-16T03:39:37;1.13;;;0.67;;
13816;SDS011;6979;52.116;5.286;2024-01-16T03:42:15;1.50;;;0.50;;
13816;SDS011;6979;52.116;5.286;2024-01-16T03:44:42;0.63;;;0.40;;
13816;SDS011;6979;52.116;5.286;2024-01-16T03:47:09;0.93;;;0.40;;
13816;SDS011;6979;52.116;5.286;2024-01-16T03:49:40;1.23;;;0.50;;
13816;SDS011;6979;52.116;5.286;2024-01-16T03:52:06;0.73;;;0.33;;
13816;SDS011;6979;52.116;5.286;2024-01-16T03:54:33;0.63;;;0.30;;
13816;SDS011;6979;52.116;5.286;2024-01-16T03:57:00;1.17;;;0.50;;
13816;SDS011;6979;52.116;5.286;2024-01-16T03:59:27;2.60;;;0.90;;
13816;SDS011;6979;52.116;5.286;2024-01-16T04:01:54;0.67;;;0.67;;
13816;SDS011;6979;52.116;5.286;2024-01-16T04:04:22;2.20;;;0.70;;
13816;SDS011;6979;52.116;5.286;2024-01-16T04:06:50;1.23;;;0.67;;
13816;SDS011;6979;52.116;5.286;2024-01-16T04:09:20;1.13;;;0.40;;
13816;SDS011;6979;52.116;5.286;2024-01-16T04:11:49;0.60;;;0.50;;
13816;SDS011;6979;52.116;5.286;2024-01-16T04:14:16;1.00;;;0.47;;
13816;SDS011;6979;52.116;5.286;2024-01-16T04:16:43;2.10;;;0.73;;
13816;SDS011;6979;52.116;5.286;2024-01-16T04:19:10;2.83;;;0.63;;
13816;SDS011;6979;52.116;5.286;2024-01-16T04:21:37;0.60;;;0.40;;
13816;SDS011;6979;52.116;5.286;2024-01-16T04:24:06;0.63;;;0.63;;
13816;SDS011;6979;52.116;5.286;2024-01-16T04:26:35;3.10;;;1.33;;
13816;SDS011;6979;52.116;5.286;2024-01-16T04:29:05;1.27;;;0.60;;
13816;SDS011;6979;52.116;5.286;2024-01-16T04:31:32;1.30;;;0.73;;
13816;SDS011;6979;52.116;5.286;2024-01-16T04:34:04;2.77;;;0.80;;
13816;SDS011;6979;52.116;5.286;2024-01-16T04:36:31;0.67;;;0.67;;
13816;SDS011;6979;52.116;5.286;2024-01-16T04:38:58;1.03;;;0.67;;
13816;SDS011;6979;52.116;5.286;2024-01-16T04:41:26;1.47;;;0.70;;
13816;SDS011;6979;52.116;5.286;2024-01-16T04:43:53;0.93;;;0.90;;
13816;SDS011;6979;52.116;5.286;2024-01-16T04:46:22;1.63;;;0.80;;
13816;SDS011;6979;52.116;5.286;2024-01-16T04:48:49;3.33;;;0.83;;
13816;SDS011;6979;52.116;5.286;2024-01-16T04:51:16;0.87;;;0.87;;
13816;SDS011;6979;52.116;5.286;2024-01-16T04:53:49;1.77;;;1.10;;
13816;SDS011;6979;52.116;5.286;2024-01-16T04:56:15;1.67;;;1.23;;
13816;SDS011;6979;52.116;5.286;2024-01-16T04:58:44;1.83;;;1.27;;
13816;SDS011;6979;52.116;5.286;2024-01-16T05:01:11;2.17;;;1.13;;
13816;SDS011;6979;52.116;5.286;2024-01-16T05:03:39;1.13;;;1.10;;
13816;SDS011;6979;52.116;5.286;2024-01-16T05:06:11;2.03;;;1.10;;
13816;SDS011;6979;52.116;5.286;2024-01-16T05:08:40;2.37;;;1.40;;
13816;SDS011;6979;52.116;5.286;2024-01-16T05:11:10;3.20;;;1.33;;
13816;SDS011;6979;52.116;5.286;2024-01-16T05:13:37;1.83;;;1.20;;
13816;SDS011;6979;52.116;5.286;2024-01-16T05:16:05;1.30;;;1.03;;
13816;SDS011;6979;52.116;5.286;2024-01-16T05:18:33;1.90;;;1.50;;
13816;SDS011;6979;52.116;5.286;2024-01-16T05:21:01;3.40;;;1.50;;
13816;SDS011;6979;52.116;5.286;2024-01-16T05:23:28;2.67;;;1.27;;
13816;SDS011;6979;52.116;5.286;2024-01-16T05:25:55;2.50;;;1.30;;
13816;SDS011;6979;52.116;5.286;2024-01-16T05:28:22;1.70;;;1.40;;
13816;SDS011;6979;52.116;5.286;2024-01-16T05:30:48;3.67;;;1.70;;
13816;SDS011;6979;52.116;5.286;2024-01-16T05:33:17;3.10;;;1.63;;
13816;SDS011;6979;52.116;5.286;2024-01-16T05:35:44;2.47;;;1.90;;
13816;SDS011;6979;52.116;5.286;2024-01-16T05:38:11;3.10;;;1.60;;
13816;SDS011;6979;52.116;5.286;2024-01-16T05:40:38;3.20;;;1.30;;
13816;SDS011;6979;52.116;5.286;2024-01-16T05:43:05;2.20;;;1.73;;
13816;SDS011;6979;52.116;5.286;2024-01-16T05:45:32;2.23;;;1.20;;
13816;SDS011;6979;52.116;5.286;2024-01-16T05:48:01;3.27;;;1.70;;
13816;SDS011;6979;52.116;5.286;2024-01-16T05:50:30;3.70;;;1.70;;
13816;SDS011;6979;52.116;5.286;2024-01-16T05:52:57;1.73;;;1.50;;
13816;SDS011;6979;52.116;5.286;2024-01-16T05:55:24;2.43;;;1.50;;
13816;SDS011;6979;52.116;5.286;2024-01-16T05:57:51;3.47;;;1.90;;
13816;SDS011;6979;52.116;5.286;2024-01-16T06:00:18;3.70;;;1.80;;
13816;SDS011;6979;52.116;5.286;2024-01-16T06:02:48;2.73;;;1.67;;
13816;SDS011;6979;52.116;5.286;2024-01-16T06:05:15;3.17;;;1.97;;
13816;SDS011;6979;52.116;5.286;2024-01-16T06:07:43;3.07;;;2.00;;
13816;SDS011;6979;52.116;5.286;2024-01-16T06:10:13;3.87;;;1.80;;
13816;SDS011;6979;52.116;5.286;2024-01-16T06:12:40;3.43;;;1.50;;
13816;SDS011;6979;52.116;5.286;2024-01-16T06:15:07;1.97;;;1.60;;
13816;SDS011;6979;52.116;5.286;2024-01-16T06:17:38;3.10;;;2.00;;
13816;SDS011;6979;52.116;5.286;2024-01-16T06:20:05;4.40;;;2.67;;
13816;SDS011;6979;52.116;5.286;2024-01-16T06:22:33;3.27;;;1.60;;
13816;SDS011;6979;52.116;5.286;2024-01-16T06:25:01;2.03;;;1.43;;
13816;SDS011;6979;52.116;5.286;2024-01-16T06:27:28;3.53;;;1.70;;
13816;SDS011;6979;52.116;5.286;2024-01-16T06:29:55;4.30;;;1.60;;
13816;SDS011;6979;52.116;5.286;2024-01-16T06:32:21;1.10;;;1.10;;
13816;SDS011;6979;52.116;5.286;2024-01-16T06:34:48;3.43;;;1.33;;
13816;SDS011;6979;52.116;5.286;2024-01-16T06:37:15;2.27;;;1.30;;
13816;SDS011;6979;52.116;5.286;2024-01-16T06:39:42;2.77;;;1.80;;
13816;SDS011;6979;52.116;5.286;2024-01-16T06:42:11;4.37;;;1.63;;
13816;SDS011;6979;52.116;5.286;2024-01-16T06:44:37;1.57;;;1.47;;
13816;SDS011;6979;52.116;5.286;2024-01-16T06:47:05;2.57;;;1.37;;
13816;SDS011;6979;52.116;5.286;2024-01-16T06:49:33;1.70;;;1.57;;
13816;SDS011;6979;52.116;5.286;2024-01-16T06:52:00;2.83;;;2.00;;
13816;SDS011;6979;52.116;5.286;2024-01-16T06:54:27;2.40;;;1.83;;
13816;SDS011;6979;52.116;5.286;2024-01-16T06:56:54;3.33;;;2.27;;
13816;SDS011;6979;52.116;5.286;2024-01-16T06:59:22;4.17;;;2.73;;
13816;SDS011;6979;52.116;5.286;2024-01-16T07:01:48;4.77;;;3.00;;
13816;SDS011;6979;52.116;5.286;2024-01-16T07:04:16;4.13;;;3.10;;
13816;SDS011;6979;52.116;5.286;2024-01-16T07:06:43;4.97;;;3.13;;
13816;SDS011;6979;52.116;5.286;2024-01-16T07:09:11;3.30;;;3.00;;
13816;SDS011;6979;52.116;5.286;2024-01-16T07:11:38;4.90;;;3.10;;
13816;SDS011;6979;52.116;5.286;2024-01-16T07:14:11;4.13;;;2.80;;
13816;SDS011;6979;52.116;5.286;2024-01-16T07:16:39;4.40;;;3.67;;
13816;SDS011;6979;52.116;5.286;2024-01-16T07:19:06;4.93;;;3.33;;
13816;SDS011;6979;52.116;5.286;2024-01-16T07:21:37;4.60;;;3.17;;
13816;SDS011;6979;52.116;5.286;2024-01-16T07:24:06;4.53;;;4.13;;
13816;SDS011;6979;52.116;5.286;2024-01-16T07:26:33;4.47;;;3.47;;
13816;SDS011;6979;52.116;5.286;2024-01-16T07:29:00;3.87;;;3.53;;
13816;SDS011;6979;52.116;5.286;2024-01-16T07:31:27;4.40;;;3.40;;
13816;SDS011;6979;52.116;5.286;2024-01-16T07:33:55;5.17;;;4.27;;
13816;SDS011;6979;52.116;5.286;2024-01-16T07:36:22;7.63;;;4.47;;
13816;SDS011;6979;52.116;5.286;2024-01-16T07:38:49;6.30;;;5.07;;
13816;SDS011;6979;52.116;5.286;2024-01-16T07:41:18;6.37;;;4.97;;
13816;SDS011;6979;52.116;5.286;2024-01-16T07:43:45;7.33;;;5.13;;
13816;SDS011;6979;52.116;5.286;2024-01-16T07:46:11;5.33;;;4.83;;
13816;SDS011;6979;52.116;5.286;2024-01-16T07:48:38;5.77;;;4.23;;
13816;SDS011;6979;52.116;5.286;2024-01-16T07:51:06;6.40;;;4.93;;
13816;SDS011;6979;52.116;5.286;2024-01-16T07:53:33;5.10;;;4.57;;
13816;SDS011;6979;52.116;5.286;2024-01-16T07:56:00;6.03;;;5.03;;
13816;SDS011;6979;52.116;5.286;2024-01-16T07:58:27;9.27;;;5.50;;
13816;SDS011;6979;52.116;5.286;2024-01-16T08:00:54;5.40;;;4.90;;
13816;SDS011;6979;52.116;5.286;2024-01-16T08:03:20;5.30;;;4.70;;
13816;SDS011;6979;52.116;5.286;2024-01-16T08:05:47;6.43;;;4.33;;
13816;SDS011;6979;52.116;5.286;2024-01-16T08:08:15;7.07;;;4.90;;
13816;SDS011;6979;52.116;5.286;2024-01-16T08:10:42;5.13;;;4.43;;
13816;SDS011;6979;52.116;5.286;2024-01-16T08:13:09;9.57;;;5.23;;
13816;SDS011;6979;52.116;5.286;2024-01-16T08:15:36;7.80;;;5.20;;
13816;SDS011;6979;52.116;5.286;2024-01-16T08:18:04;5.87;;;4.20;;
13816;SDS011;6979;52.116;5.286;2024-01-16T08:20:31;4.77;;;4.20;;
13816;SDS011;6979;52.116;5.286;2024-01-16T08:23:01;5.77;;;4.20;;
13816;SDS011;6979;52.116;5.286;2024-01-16T08:25:30;5.27;;;4.10;;
13816;SDS011;6979;52.116;5.286;2024-01-16T08:27:58;5.00;;;4.20;;
13816;SDS011;6979;52.116;5.286;2024-01-16T08:30:26;8.13;;;4.83;;
13816;SDS011;6979;52.116;5.286;2024-01-16T08:32:52;4.83;;;4.13;;
13816;SDS011;6979;52.116;5.286;2024-01-16T08:35:19;4.63;;;4.23;;
13816;SDS011;6979;52.116;5.286;2024-01-16T08:37:47;7.77;;;4.50;;
13816;SDS011;6979;52.116;5.286;2024-01-16T08:40:14;4.60;;;4.13;;
13816;SDS011;6979;52.116;5.286;2024-01-16T08:42:43;6.03;;;4.03;;
13816;SDS011;6979;52.116;5.286;2024-01-16T08:45:10;5.03;;;3.97;;
13816;SDS011;6979;52.116;5.286;2024-01-16T08:47:37;6.47;;;4.00;;
13816;SDS011;6979;52.116;5.286;2024-01-16T08:50:04;8.57;;;4.00;;
13816;SDS011;6979;52.116;5.286;2024-01-16T08:52:37;3.93;;;3.50;;
13816;SDS011;6979;52.116;5.286;2024-01-16T08:55:04;6.23;;;3.63;;
13816;SDS011;6979;52.116;5.286;2024-01-16T08:57:36;5.13;;;3.50;;
13816;SDS011;6979;52.116;5.286;2024-01-16T09:00:06;4.13;;;3.20;;
13816;SDS011;6979;52.116;5.286;2024-01-16T09:02:34;3.10;;;2.87;;
13816;SDS011;6979;52.116;5.286;2024-01-16T09:05:02;5.67;;;3.20;;
13816;SDS011;6979;52.116;5.286;2024-01-16T09:07:31;5.53;;;2.80;;
13816;SDS011;6979;52.116;5.286;2024-01-16T09:09:58;4.03;;;2.50;;
13816;SDS011;6979;52.116;5.286;2024-01-16T09:12:24;4.00;;;2.70;;
13816;SDS011;6979;52.116;5.286;2024-01-16T09:14:54;5.13;;;2.70;;
13816;SDS011;6979;52.116;5.286;2024-01-16T09:17:22;5.13;;;2.93;;
13816;SDS011;6979;52.116;5.286;2024-01-16T09:19:50;3.73;;;2.60;;
13816;SDS011;6979;52.116;5.286;2024-01-16T09:22:17;4.30;;;2.50;;
13816;SDS011;6979;52.116;5.286;2024-01-16T09:24:44;5.43;;;3.17;;
13816;SDS011;6979;52.116;5.286;2024-01-16T09:27:11;5.43;;;3.27;;
13816;SDS011;6979;52.116;5.286;2024-01-16T09:29:39;3.70;;;2.20;;
13816;SDS011;6979;52.116;5.286;2024-01-16T09:32:10;3.10;;;2.30;;
13816;SDS011;6979;52.116;5.286;2024-01-16T09:34:39;3.90;;;2.50;;
13816;SDS011;6979;52.116;5.286;2024-01-16T09:37:05;4.63;;;2.20;;
13816;SDS011;6979;52.116;5.286;2024-01-16T09:39:32;7.27;;;3.43;;
13816;SDS011;6979;52.116;5.286;2024-01-16T09:42:05;2.60;;;2.27;;
13816;SDS011;6979;52.116;5.286;2024-01-16T09:44:31;3.07;;;2.57;;
13816;SDS011;6979;52.116;5.286;2024-01-16T09:46:59;6.40;;;2.57;;
13816;SDS011;6979;52.116;5.286;2024-01-16T09:49:29;3.07;;;2.13;;
13816;SDS011;6979;52.116;5.286;2024-01-16T09:51:57;2.60;;;2.40;;
13816;SDS011;6979;52.116;5.286;2024-01-16T09:54:26;5.77;;;2.80;;
13816;SDS011;6979;52.116;5.286;2024-01-16T09:56:53;4.17;;;2.77;;
13816;SDS011;6979;52.116;5.286;2024-01-16T09:59:25;4.13;;;2.80;;
13816;SDS011;6979;52.116;5.286;2024-01-16T10:01:59;2.60;;;2.40;;
13816;SDS011;6979;52.116;5.286;2024-01-16T10:04:30;6.43;;;3.20;;
13816;SDS011;6979;52.116;5.286;2024-01-16T10:07:00;4.33;;;2.70;;
13816;SDS011;6979;52.116;5.286;2024-01-16T10:09:28;4.37;;;2.23;;
13816;SDS011;6979;52.116;5.286;2024-01-16T10:11:55;7.97;;;2.80;;
13816;SDS011;6979;52.116;5.286;2024-01-16T10:14:22;3.80;;;2.43;;
13816;SDS011;6979;52.116;5.286;2024-01-16T10:16:56;2.40;;;2.20;;
13816;SDS011;6979;52.116;5.286;2024-01-16T10:19:25;4.90;;;2.40;;
13816;SDS011;6979;52.116;5.286;2024-01-16T10:21:56;4.57;;;2.70;;
13816;SDS011;6979;52.116;5.286;2024-01-16T10:24:29;3.93;;;2.43;;
13816;SDS011;6979;52.116;5.286;2024-01-16T10:26:58;3.03;;;2.40;;
13816;SDS011;6979;52.116;5.286;2024-01-16T10:29:29;5.13;;;2.33;;
13816;SDS011;6979;52.116;5.286;2024-01-16T10:31:56;3.20;;;2.10;;
13816;SDS011;6979;52.116;5.286;2024-01-16T10:34:23;3.00;;;2.70;;
13816;SDS011;6979;52.116;5.286;2024-01-16T10:36:51;5.20;;;2.30;;
13816;SDS011;6979;52.116;5.286;2024-01-16T10:39:26;5.87;;;2.60;;
13816;SDS011;6979;52.116;5.286;2024-01-16T10:41:56;3.57;;;2.00;;
13816;SDS011;6979;52.116;5.286;2024-01-16T10:44:24;2.57;;;2.30;;
13816;SDS011;6979;52.116;5.286;2024-01-16T10:46:52;4.93;;;2.17;;
13816;SDS011;6979;52.116;5.286;2024-01-16T10:49:35;4.47;;;2.13;;
13816;SDS011;6979;52.116;5.286;2024-01-16T10:52:03;2.43;;;2.17;;
13816;SDS011;6979;52.116;5.286;2024-01-16T10:54:36;3.83;;;2.17;;
13816;SDS011;6979;52.116;5.286;2024-01-16T10:57:07;2.20;;;1.70;;
13816;SDS011;6979;52.116;5.286;2024-01-16T10:59:36;4.67;;;2.37;;
13816;SDS011;6979;52.116;5.286;2024-01-16T11:02:11;2.93;;;2.30;;
13816;SDS011;6979;52.116;5.286;2024-01-16T11:04:45;3.90;;;2.43;;
13816;SDS011;6979;52.116;5.286;2024-01-16T11:07:14;7.43;;;2.33;;
13816;SDS011;6979;52.116;5.286;2024-01-16T11:09:44;2.77;;;1.80;;
13816;SDS011;6979;52.116;5.286;2024-01-16T11:12:11;2.93;;;2.03;;
13816;SDS011;6979;52.116;5.286;2024-01-16T11:14:42;2.67;;;1.93;;
13816;SDS011;6979;52.116;5.286;2024-01-16T11:17:10;5.43;;;2.77;;
13816;SDS011;6979;52.116;5.286;2024-01-16T11:19:43;3.63;;;2.77;;
13816;SDS011;6979;52.116;5.286;2024-01-16T11:22:11;3.90;;;2.43;;
13816;SDS011;6979;52.116;5.286;2024-01-16T11:24:38;2.53;;;2.33;;
13816;SDS011;6979;52.116;5.286;2024-01-16T11:27:06;3.67;;;2.30;;
13816;SDS011;6979;52.116;5.286;2024-01-16T11:29:34;4.47;;;2.70;;
13816;SDS011;6979;52.116;5.286;2024-01-16T11:32:02;3.77;;;2.30;;
13816;SDS011;6979;52.116;5.286;2024-01-16T11:37:24;3.23;;;2.57;;
13816;SDS011;6979;52.116;5.286;2024-01-16T11:42:51;3.53;;;2.30;;
13816;SDS011;6979;52.116;5.286;2024-01-16T11:48:16;3.27;;;2.00;;
13816;SDS011;6979;52.116;5.286;2024-01-16T11:50:43;3.47;;;2.00;;
13816;SDS011;6979;52.116;5.286;2024-01-16T11:53:11;4.03;;;2.13;;
13816;SDS011;6979;52.116;5.286;2024-01-16T11:56:02;2.93;;;2.40;;
13816;SDS011;6979;52.116;5.286;2024-01-16T11:58:57;4.10;;;2.40;;
13816;SDS011;6979;52.116;5.286;2024-01-16T12:01:38;3.90;;;2.30;;
13816;SDS011;6979;52.116;5.286;2024-01-16T12:04:10;5.13;;;2.40;;
13816;SDS011;6979;52.116;5.286;2024-01-16T12:06:37;2.30;;;2.10;;
13816;SDS011;6979;52.116;5.286;2024-01-16T12:09:11;4.10;;;2.17;;
13816;SDS011;6979;52.116;5.286;2024-01-16T12:11:39;3.27;;;2.33;;
13816;SDS011;6979;52.116;5.286;2024-01-16T12:14:09;3.50;;;2.00;;
13816;SDS011;6979;52.116;5.286;2024-01-16T12:16:36;3.47;;;2.03;;
13816;SDS011;6979;52.116;5.286;2024-01-16T12:19:04;7.03;;;2.50;;
13816;SDS011;6979;52.116;5.286;2024-01-16T12:21:33;3.33;;;2.23;;
13816;SDS011;6979;52.116;5.286;2024-01-16T12:24:01;2.53;;;2.33;;
13816;SDS011;6979;52.116;5.286;2024-01-16T12:26:29;2.53;;;1.90;;
13816;SDS011;6979;52.116;5.286;2024-01-16T12:28:59;2.37;;;2.17;;
13816;SDS011;6979;52.116;5.286;2024-01-16T12:31:27;3.03;;;2.30;;
13816;SDS011;6979;52.116;5.286;2024-01-16T12:34:04;6.80;;;2.83;;
13816;SDS011;6979;52.116;5.286;2024-01-16T12:36:32;3.47;;;2.20;;
13816;SDS011;6979;52.116;5.286;2024-01-16T12:38:59;3.33;;;2.90;;
13816;SDS011;6979;52.116;5.286;2024-01-16T12:41:26;5.70;;;2.60;;
13816;SDS011;6979;52.116;5.286;2024-01-16T12:43:57;4.57;;;2.30;;
13816;SDS011;6979;52.116;5.286;2024-01-16T12:46:24;2.50;;;2.30;;
13816;SDS011;6979;52.116;5.286;2024-01-16T12:49:01;3.63;;;2.97;;
13816;SDS011;6979;52.116;5.286;2024-01-16T12:51:28;5.17;;;2.40;;
13816;SDS011;6979;52.116;5.286;2024-01-16T12:54:09;4.13;;;2.43;;
13816;SDS011;6979;52.116;5.286;2024-01-16T12:56:36;6.47;;;3.60;;
13816;SDS011;6979;52.116;5.286;2024-01-16T12:59:12;6.27;;;2.50;;
13816;SDS011;6979;52.116;5.286;2024-01-16T13:01:43;4.67;;;3.63;;
13816;SDS011;6979;52.116;5.286;2024-01-16T13:04:12;3.17;;;2.87;;
13816;SDS011;6979;52.116;5.286;2024-01-16T13:06:42;4.23;;;2.70;;
13816;SDS011;6979;52.116;5.286;2024-01-16T13:09:15;3.30;;;3.00;;
13816;SDS011;6979;52.116;5.286;2024-01-16T13:11:49;3.60;;;3.30;;
13816;SDS011;6979;52.116;5.286;2024-01-16T13:14:17;6.97;;;3.17;;
13816;SDS011;6979;52.116;5.286;2024-01-16T13:16:45;11.10;;;2.80;;
13816;SDS011;6979;52.116;5.286;2024-01-16T13:19:17;4.10;;;2.50;;
13816;SDS011;6979;52.116;5.286;2024-01-16T13:21:44;3.60;;;3.10;;
13816;SDS011;6979;52.116;5.286;2024-01-16T13:24:11;4.40;;;2.90;;
13816;SDS011;6979;52.116;5.286;2024-01-16T13:26:38;3.43;;;2.90;;
13816;SDS011;6979;52.116;5.286;2024-01-16T13:29:06;3.20;;;2.70;;
13816;SDS011;6979;52.116;5.286;2024-01-16T13:31:34;6.80;;;3.03;;
13816;SDS011;6979;52.116;5.286;2024-01-16T13:36:52;3.20;;;2.40;;
13816;SDS011;6979;52.116;5.286;2024-01-16T13:39:24;2.70;;;2.50;;
13816;SDS011;6979;52.116;5.286;2024-01-16T13:41:51;3.57;;;2.40;;
13816;SDS011;6979;52.116;5.286;2024-01-16T13:44:20;2.87;;;2.43;;
13816;SDS011;6979;52.116;5.286;2024-01-16T13:46:47;3.37;;;2.67;;
13816;SDS011;6979;52.116;5.286;2024-01-16T13:49:14;2.03;;;1.93;;
13816;SDS011;6979;52.116;5.286;2024-01-16T13:51:44;2.77;;;2.20;;
13816;SDS011;6979;52.116;5.286;2024-01-16T13:54:11;2.50;;;2.17;;
13816;SDS011;6979;52.116;5.286;2024-01-16T13:56:40;2.93;;;1.90;;
13816;SDS011;6979;52.116;5.286;2024-01-16T13:59:08;3.20;;;2.00;;
13816;SDS011;6979;52.116;5.286;2024-01-16T14:01:35;2.90;;;1.87;;
13816;SDS011;6979;52.116;5.286;2024-01-16T14:04:02;3.57;;;2.00;;
13816;SDS011;6979;52.116;5.286;2024-01-16T14:06:30;3.10;;;1.80;;
13816;SDS011;6979;52.116;5.286;2024-01-16T14:08:59;2.90;;;1.93;;
13816;SDS011;6979;52.116;5.286;2024-01-16T14:11:25;3.63;;;1.90;;
13816;SDS011;6979;52.116;5.286;2024-01-16T14:13:52;2.47;;;1.87;;
13816;SDS011;6979;52.116;5.286;2024-01-16T14:16:19;3.37;;;2.40;;
13816;SDS011;6979;52.116;5.286;2024-01-16T14:18:46;1.93;;;1.83;;
13816;SDS011;6979;52.116;5.286;2024-01-16T14:21:16;3.00;;;2.60;;
13816;SDS011;6979;52.116;5.286;2024-01-16T14:23:43;4.13;;;2.70;;
13816;SDS011;6979;52.116;5.286;2024-01-16T14:26:11;6.87;;;2.50;;
13816;SDS011;6979;52.116;5.286;2024-01-16T14:28:38;2.80;;;2.17;;
13816;SDS011;6979;52.116;5.286;2024-01-16T14:31:05;4.77;;;2.50;;
13816;SDS011;6979;52.116;5.286;2024-01-16T14:33:32;2.80;;;2.33;;
13816;SDS011;6979;52.116;5.286;2024-01-16T14:36:00;3.97;;;2.70;;
13816;SDS011;6979;52.116;5.286;2024-01-16T14:38:27;3.53;;;2.80;;
13816;SDS011;6979;52.116;5.286;2024-01-16T14:40:54;4.10;;;2.93;;
13816;SDS011;6979;52.116;5.286;2024-01-16T14:43:23;3.80;;;2.43;;
13816;SDS011;6979;52.116;5.286;2024-01-16T14:45:50;3.43;;;2.33;;
13816;SDS011;6979;52.116;5.286;2024-01-16T14:48:17;3.70;;;2.80;;
13816;SDS011;6979;52.116;5.286;2024-01-16T14:50:45;3.63;;;3.00;;
13816;SDS011;6979;52.116;5.286;2024-01-16T14:53:14;2.70;;;2.50;;
13816;SDS011;6979;52.116;5.286;2024-01-16T14:55:41;3.87;;;2.77;;
13816;SDS011;6979;52.116;5.286;2024-01-16T14:58:08;4.50;;;3.30;;
13816;SDS011;6979;52.116;5.286;2024-01-16T15:00:36;3.37;;;2.20;;
13816;SDS011;6979;52.116;5.286;2024-01-16T15:03:08;3.70;;;2.90;;
13816;SDS011;6979;52.116;5.286;2024-01-16T15:05:35;3.60;;;3.30;;
13816;SDS011;6979;52.116;5.286;2024-01-16T15:08:02;2.80;;;2.23;;
13816;SDS011;6979;52.116;5.286;2024-01-16T15:10:29;5.20;;;2.97;;
13816;SDS011;6979;52.116;5.286;2024-01-16T15:12:56;3.73;;;2.90;;
13816;SDS011;6979;52.116;5.286;2024-01-16T15:15:23;2.87;;;2.40;;
13816;SDS011;6979;52.116;5.286;2024-01-16T15:17:51;3.97;;;2.93;;